Atwood, CO (80722)

1:11 AM MST on February 13, 2016 (GMT -0700)
Sterling Municipal | | Change Station
CLOSE
Current Station
Airport
Location: Sterling Muni, Sterling, CO,
Elevation: 4039 ft
Nearby Weather Stations

Elev 4039 ft 40.62 °N, 103.26 °W | Updated 16 minutes ago

Overcast
Overcast
32 °F
Feels Like 22 °F
N
13
Wind Variable Wind from South

Today
High -- | Low -- °F
--% Chance of Precip.
Yesterday
High -- | Low -- °F
Precip. -- in
Pressure 30.22 in
Visibility 10.0 miles
Clouds Overcast 700 ft
Windchill 22 °F
Dew Point 32 °F
Humidity 100%
Rainfall 0.00 in
Snow Depth Not available.
6:49 AM 5:25 PM
Waxing Crescent, 28% visible
METAR KSTK 130755Z AUTO 19011KT 10SM OVC007 00/00 A3022 RMK AO2
Pressure 30.22 in
Visibility 10.0 miles
Clouds Overcast 700 ft
Windchill 22 °F
Dew Point 32 °F
Humidity 100%
Rainfall 0.00 in
Snow Depth Not available.
6:49 AM 5:25 PM
Waxing Crescent, 28% visible
METAR KSTK 130755Z AUTO 19011KT 10SM OVC007 00/00 A3022 RMK AO2

10-Day Weather Forecast

Almanac

Astronomy

Feb. 13, 2016 Rise Set
Actual Time
Civil Twilight
Nautical Twilight
Astronomical Twilight
Moon
Length of Visible Light
Length of Day
Tomorrow will be .
, % of the Moon is Illuminated

Today's Extremes

State Highs State Lows

Community

WunderPhotos

Upload Photos

1,892,536 photos uploaded!

WunderBlog® & News

Nearby

Air Quality

  Air Quality AQ Index Pollutant
Not available.

Snow Depth

Station Depth Elevation

Earthquake Activity

City Distance Mag. Time & Date
Minimum magnitude displayed is 2.5.

Coastal Water Temperatures

Place Temperature

Stations

Nearby Weather Stations

Station Location Temp. Windchill Dew Point Humidity Wind Precip. Elev Updated Type
                   

Watches & Warnings

There are currently no watches in effect.